sensor_id;sensor_type;location;lat;lon;timestamp;P1;durP1;ratioP1;P2;durP2;ratioP2
7989;SDS011;4040;42.848;23.034;2023-07-29T00:03:31;3.38;;;3.08;;
7989;SDS011;4040;42.848;23.034;2023-07-29T00:13:33;4.07;;;2.85;;
7989;SDS011;4040;42.848;23.034;2023-07-29T00:19:21;3.40;;;3.10;;
7989;SDS011;4040;42.848;23.034;2023-07-29T00:25:11;3.17;;;2.78;;
7989;SDS011;4040;42.848;23.034;2023-07-29T00:31:01;3.63;;;3.33;;
7989;SDS011;4040;42.848;23.034;2023-07-29T00:36:50;3.40;;;3.10;;
7989;SDS011;4040;42.848;23.034;2023-07-29T00:42:39;3.45;;;3.15;;
7989;SDS011;4040;42.848;23.034;2023-07-29T00:48:30;3.67;;;2.92;;
7989;SDS011;4040;42.848;23.034;2023-07-29T00:54:19;3.33;;;3.03;;
7989;SDS011;4040;42.848;23.034;2023-07-29T01:00:08;5.15;;;3.58;;
7989;SDS011;4040;42.848;23.034;2023-07-29T01:06:01;3.70;;;3.35;;
7989;SDS011;4040;42.848;23.034;2023-07-29T01:16:20;4.00;;;3.33;;
7989;SDS011;4040;42.848;23.034;2023-07-29T01:22:15;4.28;;;3.20;;
7989;SDS011;4040;42.848;23.034;2023-07-29T01:28:06;4.00;;;3.35;;
7989;SDS011;4040;42.848;23.034;2023-07-29T01:33:57;3.45;;;3.10;;
7989;SDS011;4040;42.848;23.034;2023-07-29T01:39:50;4.82;;;3.28;;
7989;SDS011;4040;42.848;23.034;2023-07-29T01:45:43;5.20;;;3.30;;
7989;SDS011;4040;42.848;23.034;2023-07-29T01:51:33;3.80;;;3.40;;
7989;SDS011;4040;42.848;23.034;2023-07-29T01:57:22;4.10;;;3.70;;
7989;SDS011;4040;42.848;23.034;2023-07-29T02:03:12;4.05;;;3.50;;
7989;SDS011;4040;42.848;23.034;2023-07-29T02:09:00;4.20;;;3.30;;
7989;SDS011;4040;42.848;23.034;2023-07-29T02:11:29;3.90;;;3.50;;
7989;SDS011;4040;42.848;23.034;2023-07-29T02:17:18;3.58;;;3.10;;
7989;SDS011;4040;42.848;23.034;2023-07-29T02:23:09;4.10;;;3.58;;
7989;SDS011;4040;42.848;23.034;2023-07-29T02:28:58;4.20;;;3.80;;
7989;SDS011;4040;42.848;23.034;2023-07-29T02:34:46;3.83;;;3.43;;
7989;SDS011;4040;42.848;23.034;2023-07-29T02:40:37;6.77;;;4.10;;
7989;SDS011;4040;42.848;23.034;2023-07-29T02:46:26;4.43;;;3.80;;
7989;SDS011;4040;42.848;23.034;2023-07-29T02:52:14;4.43;;;3.60;;
7989;SDS011;4040;42.848;23.034;2023-07-29T02:58:04;4.83;;;3.80;;
7989;SDS011;4040;42.848;23.034;2023-07-29T03:03:53;5.20;;;3.70;;
7989;SDS011;4040;42.848;23.034;2023-07-29T03:09:42;6.40;;;3.87;;
7989;SDS011;4040;42.848;23.034;2023-07-29T03:12:10;5.75;;;4.03;;
7989;SDS011;4040;42.848;23.034;2023-07-29T03:18:00;5.13;;;3.77;;
7989;SDS011;4040;42.848;23.034;2023-07-29T03:23:49;5.30;;;3.73;;
7989;SDS011;4040;42.848;23.034;2023-07-29T03:29:38;6.63;;;3.53;;
7989;SDS011;4040;42.848;23.034;2023-07-29T03:35:28;4.47;;;3.73;;
7989;SDS011;4040;42.848;23.034;2023-07-29T03:41:16;5.00;;;4.00;;
7989;SDS011;4040;42.848;23.034;2023-07-29T03:47:05;5.70;;;3.93;;
7989;SDS011;4040;42.848;23.034;2023-07-29T03:52:56;4.90;;;3.63;;
7989;SDS011;4040;42.848;23.034;2023-07-29T03:58:45;6.85;;;4.22;;
7989;SDS011;4040;42.848;23.034;2023-07-29T04:04:35;4.85;;;3.95;;
7989;SDS011;4040;42.848;23.034;2023-07-29T04:10:25;5.75;;;4.47;;
7989;SDS011;4040;42.848;23.034;2023-07-29T04:16:14;4.70;;;3.90;;
7989;SDS011;4040;42.848;23.034;2023-07-29T04:22:03;4.25;;;3.75;;
7989;SDS011;4040;42.848;23.034;2023-07-29T04:27:53;11.88;;;4.55;;
7989;SDS011;4040;42.848;23.034;2023-07-29T04:33:44;8.60;;;4.22;;
7989;SDS011;4040;42.848;23.034;2023-07-29T04:39:33;5.20;;;3.95;;
7989;SDS011;4040;42.848;23.034;2023-07-29T04:45:23;5.07;;;4.00;;
7989;SDS011;4040;42.848;23.034;2023-07-29T04:51:16;8.73;;;3.85;;
7989;SDS011;4040;42.848;23.034;2023-07-29T04:57:05;6.00;;;3.50;;
7989;SDS011;4040;42.848;23.034;2023-07-29T05:02:55;8.88;;;3.13;;
7989;SDS011;4040;42.848;23.034;2023-07-29T05:08:44;6.35;;;3.00;;
7989;SDS011;4040;42.848;23.034;2023-07-29T05:18:56;6.22;;;2.92;;
7989;SDS011;4040;42.848;23.034;2023-07-29T05:24:44;5.90;;;3.08;;
7989;SDS011;4040;42.848;23.034;2023-07-29T05:30:33;3.90;;;2.90;;
7989;SDS011;4040;42.848;23.034;2023-07-29T05:36:25;6.65;;;2.70;;
7989;SDS011;4040;42.848;23.034;2023-07-29T05:42:14;13.45;;;3.75;;
7989;SDS011;4040;42.848;23.034;2023-07-29T05:48:03;3.95;;;2.60;;
7989;SDS011;4040;42.848;23.034;2023-07-29T05:53:54;3.83;;;2.80;;
7989;SDS011;4040;42.848;23.034;2023-07-29T05:59:42;7.80;;;3.20;;
7989;SDS011;4040;42.848;23.034;2023-07-29T06:05:31;8.63;;;3.80;;
7989;SDS011;4040;42.848;23.034;2023-07-29T06:11:21;13.00;;;3.55;;
7989;SDS011;4040;42.848;23.034;2023-07-29T06:21:32;6.32;;;2.92;;
7989;SDS011;4040;42.848;23.034;2023-07-29T06:27:22;6.38;;;2.78;;
7989;SDS011;4040;42.848;23.034;2023-07-29T06:33:11;3.45;;;2.42;;
7989;SDS011;4040;42.848;23.034;2023-07-29T06:39:00;9.40;;;3.28;;
7989;SDS011;4040;42.848;23.034;2023-07-29T06:44:50;5.13;;;2.72;;
7989;SDS011;4040;42.848;23.034;2023-07-29T06:50:39;6.18;;;3.17;;
7989;SDS011;4040;42.848;23.034;2023-07-29T06:56:28;16.52;;;3.35;;
7989;SDS011;4040;42.848;23.034;2023-07-29T07:02:19;4.03;;;3.45;;
7989;SDS011;4040;42.848;23.034;2023-07-29T07:08:07;3.67;;;3.10;;
7989;SDS011;4040;42.848;23.034;2023-07-29T07:13:56;6.53;;;3.20;;
7989;SDS011;4040;42.848;23.034;2023-07-29T07:24:08;6.05;;;3.20;;
7989;SDS011;4040;42.848;23.034;2023-07-29T07:29:56;3.92;;;2.95;;
7989;SDS011;4040;42.848;23.034;2023-07-29T07:35:45;6.97;;;3.10;;
7989;SDS011;4040;42.848;23.034;2023-07-29T07:41:35;4.85;;;3.00;;
7989;SDS011;4040;42.848;23.034;2023-07-29T07:47:24;7.70;;;2.85;;
7989;SDS011;4040;42.848;23.034;2023-07-29T07:53:12;3.35;;;2.50;;
7989;SDS011;4040;42.848;23.034;2023-07-29T07:59:03;4.93;;;2.60;;
7989;SDS011;4040;42.848;23.034;2023-07-29T08:04:52;4.75;;;2.55;;
7989;SDS011;4040;42.848;23.034;2023-07-29T08:10:40;3.53;;;2.38;;
7989;SDS011;4040;42.848;23.034;2023-07-29T08:16:31;6.05;;;1.98;;
7989;SDS011;4040;42.848;23.034;2023-07-29T08:26:41;3.47;;;2.22;;
7989;SDS011;4040;42.848;23.034;2023-07-29T08:32:31;6.07;;;2.05;;
7989;SDS011;4040;42.848;23.034;2023-07-29T08:38:20;2.88;;;2.30;;
7989;SDS011;4040;42.848;23.034;2023-07-29T08:44:11;3.45;;;2.17;;
7989;SDS011;4040;42.848;23.034;2023-07-29T08:50:08;2.25;;;2.05;;
7989;SDS011;4040;42.848;23.034;2023-07-29T08:55:57;3.10;;;2.00;;
7989;SDS011;4040;42.848;23.034;2023-07-29T09:01:46;1.90;;;1.80;;
7989;SDS011;4040;42.848;23.034;2023-07-29T09:07:37;3.70;;;1.80;;
7989;SDS011;4040;42.848;23.034;2023-07-29T09:13:27;4.55;;;1.70;;
7989;SDS011;4040;42.848;23.034;2023-07-29T09:19:16;5.38;;;1.88;;
7989;SDS011;4040;42.848;23.034;2023-07-29T09:29:29;2.80;;;1.80;;
7989;SDS011;4040;42.848;23.034;2023-07-29T09:35:18;1.58;;;1.40;;
7989;SDS011;4040;42.848;23.034;2023-07-29T09:41:07;5.85;;;1.50;;
7989;SDS011;4040;42.848;23.034;2023-07-29T09:47:01;2.90;;;1.30;;
7989;SDS011;4040;42.848;23.034;2023-07-29T09:52:50;2.28;;;1.20;;
7989;SDS011;4040;42.848;23.034;2023-07-29T09:58:39;1.30;;;1.20;;
7989;SDS011;4040;42.848;23.034;2023-07-29T10:04:33;1.23;;;1.10;;
7989;SDS011;4040;42.848;23.034;2023-07-29T10:10:22;1.20;;;1.10;;
7989;SDS011;4040;42.848;23.034;2023-07-29T10:16:11;1.70;;;1.48;;
7989;SDS011;4040;42.848;23.034;2023-07-29T10:22:01;1.70;;;1.20;;
7989;SDS011;4040;42.848;23.034;2023-07-29T10:32:14;1.77;;;1.17;;
7989;SDS011;4040;42.848;23.034;2023-07-29T10:38:05;1.10;;;1.00;;
7989;SDS011;4040;42.848;23.034;2023-07-29T10:40:45;2.17;;;1.33;;
7989;SDS011;4040;42.848;23.034;2023-07-29T10:46:35;1.30;;;1.20;;
7989;SDS011;4040;42.848;23.034;2023-07-29T10:52:31;1.95;;;1.50;;
7989;SDS011;4040;42.848;23.034;2023-07-29T10:58:30;3.35;;;1.35;;
7989;SDS011;4040;42.848;23.034;2023-07-29T11:04:22;2.55;;;1.58;;
7989;SDS011;4040;42.848;23.034;2023-07-29T11:10:14;1.75;;;1.60;;
7989;SDS011;4040;42.848;23.034;2023-07-29T11:16:05;3.45;;;1.70;;
7989;SDS011;4040;42.848;23.034;2023-07-29T11:21:54;1.60;;;1.35;;
7989;SDS011;4040;42.848;23.034;2023-07-29T11:27:43;3.25;;;1.60;;
7989;SDS011;4040;42.848;23.034;2023-07-29T11:33:34;1.40;;;1.30;;
7989;SDS011;4040;42.848;23.034;2023-07-29T11:39:22;1.88;;;1.42;;
7989;SDS011;4040;42.848;23.034;2023-07-29T11:45:11;1.70;;;1.10;;
7989;SDS011;4040;42.848;23.034;2023-07-29T11:51:03;5.45;;;1.25;;
7989;SDS011;4040;42.848;23.034;2023-07-29T11:56:52;2.20;;;1.52;;
7989;SDS011;4040;42.848;23.034;2023-07-29T12:02:41;4.65;;;1.70;;
7989;SDS011;4040;42.848;23.034;2023-07-29T12:08:33;2.33;;;1.48;;
7989;SDS011;4040;42.848;23.034;2023-07-29T12:14:25;1.50;;;1.40;;
7989;SDS011;4040;42.848;23.034;2023-07-29T12:20:14;3.05;;;1.40;;
7989;SDS011;4040;42.848;23.034;2023-07-29T12:26:04;3.53;;;1.58;;
7989;SDS011;4040;42.848;23.034;2023-07-29T12:31:57;1.50;;;1.40;;
7989;SDS011;4040;42.848;23.034;2023-07-29T12:37:47;2.30;;;1.55;;
7989;SDS011;4040;42.848;23.034;2023-07-29T12:43:47;1.55;;;1.30;;
7989;SDS011;4040;42.848;23.034;2023-07-29T12:49:36;6.32;;;1.88;;
7989;SDS011;4040;42.848;23.034;2023-07-29T12:55:24;4.47;;;1.60;;
7989;SDS011;4040;42.848;23.034;2023-07-29T13:01:15;1.77;;;1.25;;
7989;SDS011;4040;42.848;23.034;2023-07-29T13:07:04;3.60;;;1.50;;
7989;SDS011;4040;42.848;23.034;2023-07-29T13:12:53;1.60;;;1.10;;
7989;SDS011;4040;42.848;23.034;2023-07-29T13:18:44;1.70;;;1.20;;
7989;SDS011;4040;42.848;23.034;2023-07-29T13:24:32;1.50;;;1.40;;
7989;SDS011;4040;42.848;23.034;2023-07-29T13:34:44;2.63;;;1.42;;
7989;SDS011;4040;42.848;23.034;2023-07-29T13:40:33;3.30;;;1.30;;
7989;SDS011;4040;42.848;23.034;2023-07-29T13:46:22;2.42;;;1.52;;
7989;SDS011;4040;42.848;23.034;2023-07-29T13:52:13;2.88;;;1.42;;
7989;SDS011;4040;42.848;23.034;2023-07-29T13:58:02;6.55;;;1.95;;
7989;SDS011;4040;42.848;23.034;2023-07-29T14:03:51;3.97;;;1.52;;
7989;SDS011;4040;42.848;23.034;2023-07-29T14:09:40;8.02;;;1.90;;
7989;SDS011;4040;42.848;23.034;2023-07-29T14:15:29;3.50;;;1.63;;
7989;SDS011;4040;42.848;23.034;2023-07-29T14:21:18;2.22;;;1.60;;
7989;SDS011;4040;42.848;23.034;2023-07-29T14:27:08;9.48;;;3.05;;
7989;SDS011;4040;42.848;23.034;2023-07-29T14:37:19;3.30;;;1.70;;
7989;SDS011;4040;42.848;23.034;2023-07-29T14:43:09;4.32;;;1.50;;
7989;SDS011;4040;42.848;23.034;2023-07-29T14:48:58;2.42;;;1.48;;
7989;SDS011;4040;42.848;23.034;2023-07-29T14:54:47;1.50;;;1.30;;
7989;SDS011;4040;42.848;23.034;2023-07-29T15:00:37;1.83;;;1.30;;
7989;SDS011;4040;42.848;23.034;2023-07-29T15:06:25;2.95;;;1.40;;
7989;SDS011;4040;42.848;23.034;2023-07-29T15:12:14;1.60;;;1.50;;
7989;SDS011;4040;42.848;23.034;2023-07-29T15:14:41;1.90;;;1.70;;
7989;SDS011;4040;42.848;23.034;2023-07-29T15:20:31;3.08;;;1.70;;
7989;SDS011;4040;42.848;23.034;2023-07-29T15:26:21;2.05;;;1.85;;
7989;SDS011;4040;42.848;23.034;2023-07-29T15:32:09;1.73;;;1.60;;
7989;SDS011;4040;42.848;23.034;2023-07-29T15:37:59;2.50;;;2.00;;
7989;SDS011;4040;42.848;23.034;2023-07-29T15:43:50;2.03;;;1.80;;
7989;SDS011;4040;42.848;23.034;2023-07-29T15:49:39;5.53;;;1.80;;
7989;SDS011;4040;42.848;23.034;2023-07-29T15:55:29;3.53;;;1.98;;
7989;SDS011;4040;42.848;23.034;2023-07-29T16:01:17;3.47;;;2.05;;
7989;SDS011;4040;42.848;23.034;2023-07-29T16:07:06;3.00;;;1.80;;
7989;SDS011;4040;42.848;23.034;2023-07-29T16:12:56;3.28;;;1.98;;
7989;SDS011;4040;42.848;23.034;2023-07-29T16:18:46;1.98;;;1.77;;
7989;SDS011;4040;42.848;23.034;2023-07-29T16:24:35;4.10;;;2.08;;
7989;SDS011;4040;42.848;23.034;2023-07-29T16:30:26;1.60;;;1.50;;
7989;SDS011;4040;42.848;23.034;2023-07-29T16:40:35;3.35;;;1.50;;
7989;SDS011;4040;42.848;23.034;2023-07-29T16:46:26;2.15;;;1.70;;
7989;SDS011;4040;42.848;23.034;2023-07-29T16:52:15;1.98;;;1.77;;
7989;SDS011;4040;42.848;23.034;2023-07-29T16:58:03;1.95;;;1.60;;
7989;SDS011;4040;42.848;23.034;2023-07-29T17:03:53;2.05;;;1.70;;
7989;SDS011;4040;42.848;23.034;2023-07-29T17:09:42;3.10;;;2.80;;
7989;SDS011;4040;42.848;23.034;2023-07-29T17:15:32;2.90;;;2.50;;
7989;SDS011;4040;42.848;23.034;2023-07-29T17:21:22;2.35;;;1.80;;
7989;SDS011;4040;42.848;23.034;2023-07-29T17:27:10;3.55;;;1.85;;
7989;SDS011;4040;42.848;23.034;2023-07-29T17:32:59;6.75;;;2.05;;
7989;SDS011;4040;42.848;23.034;2023-07-29T17:43:11;22.45;;;3.30;;
7989;SDS011;4040;42.848;23.034;2023-07-29T17:48:59;9.15;;;2.17;;
7989;SDS011;4040;42.848;23.034;2023-07-29T17:54:48;5.63;;;2.10;;
7989;SDS011;4040;42.848;23.034;2023-07-29T18:00:38;4.43;;;2.05;;
7989;SDS011;4040;42.848;23.034;2023-07-29T18:06:27;1.98;;;1.60;;
7989;SDS011;4040;42.848;23.034;2023-07-29T18:12:16;2.15;;;1.88;;
7989;SDS011;4040;42.848;23.034;2023-07-29T18:18:06;5.93;;;2.22;;
7989;SDS011;4040;42.848;23.034;2023-07-29T18:23:54;6.00;;;2.22;;
7989;SDS011;4040;42.848;23.034;2023-07-29T18:29:43;4.55;;;2.00;;
7989;SDS011;4040;42.848;23.034;2023-07-29T18:35:34;5.03;;;2.22;;
7989;SDS011;4040;42.848;23.034;2023-07-29T18:45:44;2.92;;;2.00;;
7989;SDS011;4040;42.848;23.034;2023-07-29T18:51:35;6.75;;;2.38;;
7989;SDS011;4040;42.848;23.034;2023-07-29T18:57:23;6.00;;;3.58;;
7989;SDS011;4040;42.848;23.034;2023-07-29T19:03:12;3.85;;;3.00;;
7989;SDS011;4040;42.848;23.034;2023-07-29T19:09:02;8.25;;;4.25;;
7989;SDS011;4040;42.848;23.034;2023-07-29T19:14:51;6.78;;;3.00;;
7989;SDS011;4040;42.848;23.034;2023-07-29T19:20:40;4.75;;;2.55;;
7989;SDS011;4040;42.848;23.034;2023-07-29T19:26:32;4.05;;;1.92;;
7989;SDS011;4040;42.848;23.034;2023-07-29T19:32:21;2.83;;;2.28;;
7989;SDS011;4040;42.848;23.034;2023-07-29T19:38:10;2.47;;;2.10;;
7989;SDS011;4040;42.848;23.034;2023-07-29T19:48:22;2.75;;;2.30;;
7989;SDS011;4040;42.848;23.034;2023-07-29T19:54:10;5.53;;;2.17;;
7989;SDS011;4040;42.848;23.034;2023-07-29T19:59:59;4.85;;;2.70;;
7989;SDS011;4040;42.848;23.034;2023-07-29T20:05:50;3.65;;;2.72;;
7989;SDS011;4040;42.848;23.034;2023-07-29T20:11:38;3.63;;;2.50;;
7989;SDS011;4040;42.848;23.034;2023-07-29T20:17:27;4.38;;;2.40;;
7989;SDS011;4040;42.848;23.034;2023-07-29T20:23:17;3.50;;;2.15;;
7989;SDS011;4040;42.848;23.034;2023-07-29T20:29:06;2.28;;;2.08;;
7989;SDS011;4040;42.848;23.034;2023-07-29T20:34:55;3.95;;;2.28;;
7989;SDS011;4040;42.848;23.034;2023-07-29T20:40:49;2.42;;;2.22;;
7989;SDS011;4040;42.848;23.034;2023-07-29T20:51:00;2.72;;;2.38;;
7989;SDS011;4040;42.848;23.034;2023-07-29T20:56:50;4.70;;;2.78;;
7989;SDS011;4040;42.848;23.034;2023-07-29T21:02:38;2.92;;;2.30;;
7989;SDS011;4040;42.848;23.034;2023-07-29T21:08:27;3.75;;;2.40;;
7989;SDS011;4040;42.848;23.034;2023-07-29T21:14:18;2.85;;;2.28;;
7989;SDS011;4040;42.848;23.034;2023-07-29T21:20:06;4.90;;;2.60;;
7989;SDS011;4040;42.848;23.034;2023-07-29T21:25:56;2.40;;;2.15;;
7989;SDS011;4040;42.848;23.034;2023-07-29T21:31:46;3.35;;;2.45;;
7989;SDS011;4040;42.848;23.034;2023-07-29T21:37:34;3.08;;;2.70;;
7989;SDS011;4040;42.848;23.034;2023-07-29T21:43:23;3.50;;;2.40;;
7989;SDS011;4040;42.848;23.034;2023-07-29T21:53:35;3.08;;;2.47;;
7989;SDS011;4040;42.848;23.034;2023-07-29T21:59:24;3.60;;;2.55;;
7989;SDS011;4040;42.848;23.034;2023-07-29T22:08:30;2.78;;;2.45;;
7989;SDS011;4040;42.848;23.034;2023-07-29T22:14:18;3.08;;;2.65;;
7989;SDS011;4040;42.848;23.034;2023-07-29T22:20:07;4.32;;;2.78;;
7989;SDS011;4040;42.848;23.034;2023-07-29T22:25:58;3.83;;;2.13;;
7989;SDS011;4040;42.848;23.034;2023-07-29T22:31:47;4.40;;;2.58;;
7989;SDS011;4040;42.848;23.034;2023-07-29T22:37:36;2.95;;;2.40;;
7989;SDS011;4040;42.848;23.034;2023-07-29T22:43:26;3.35;;;2.80;;
7989;SDS011;4040;42.848;23.034;2023-07-29T22:49:15;2.97;;;2.67;;
7989;SDS011;4040;42.848;23.034;2023-07-29T22:55:04;3.08;;;2.70;;
7989;SDS011;4040;42.848;23.034;2023-07-29T23:00:55;2.50;;;2.15;;
7989;SDS011;4040;42.848;23.034;2023-07-29T23:11:06;3.55;;;2.42;;
7989;SDS011;4040;42.848;23.034;2023-07-29T23:16:56;2.80;;;2.60;;
7989;SDS011;4040;42.848;23.034;2023-07-29T23:22:45;3.45;;;3.08;;
7989;SDS011;4040;42.848;23.034;2023-07-29T23:28:34;3.17;;;2.70;;
7989;SDS011;4040;42.848;23.034;2023-07-29T23:34:24;2.78;;;2.55;;
7989;SDS011;4040;42.848;23.034;2023-07-29T23:40:13;2.88;;;2.58;;
7989;SDS011;4040;42.848;23.034;2023-07-29T23:46:02;2.85;;;2.65;;
7989;SDS011;4040;42.848;23.034;2023-07-29T23:51:52;3.03;;;2.72;;
7989;SDS011;4040;42.848;23.034;2023-07-29T23:57:41;3.28;;;2.85;;
